Time;durP1;ratioP1;P1;durP2;ratioP2;P2;SDS_P1;SDS_P2;PMS_P1;PMS_P2;Temp;Humidity;BMP_temperature;BMP_pressure;BME280_temperature;BME280_humidity;BME280_pressure;Samples;Min_cycle;Max_cycle;Signal;HPM_P1;HPM_P2
2021/11/14 00:00:47;;;;;;;67.00;36.10;;;;;;;2.81;92.76;96918.02;105585;1310;22554;-84
2021/11/14 00:03:25;;;;;;;65.50;35.90;;;;;;;2.81;92.71;96918.48;105579;1309;22568;-84
2021/11/14 00:05:56;;;;;;;64.50;37.40;;;;;;;2.75;92.66;96926.61;105581;1310;26310;-84
2021/11/14 00:08:28;;;;;;;63.50;37.40;;;;;;;2.75;92.66;96930.44;105577;1315;22641;-84
2021/11/14 00:11:01;;;;;;;70.60;38.40;;;;;;;2.77;92.74;96928.15;105614;1309;22572;-84
2021/11/14 00:13:32;;;;;;;63.60;37.20;;;;;;;2.76;92.75;96931.02;105579;1309;22628;-84
2021/11/14 00:16:03;;;;;;;65.10;34.80;;;;;;;2.80;92.78;96931.90;105555;1315;22564;-84
2021/11/14 00:18:34;;;;;;;62.10;35.60;;;;;;;2.83;92.74;96933.41;105569;1316;22629;-84
2021/11/14 00:21:05;;;;;;;61.50;37.30;;;;;;;2.80;92.82;96930.81;105581;1310;22582;-84
2021/11/14 00:23:36;;;;;;;64.30;36.20;;;;;;;2.80;92.78;96928.19;105542;1315;22639;-84
2021/11/14 00:26:07;;;;;;;60.40;35.90;;;;;;;2.82;92.81;96927.21;105609;1314;25515;-84
2021/11/14 00:28:42;;;;;;;56.20;31.50;;;;;;;2.85;92.74;96927.51;105552;1310;22606;-84
2021/11/14 00:31:14;;;;;;;61.80;33.50;;;;;;;2.85;92.65;96929.23;105551;1315;25345;-84
2021/11/14 00:33:47;;;;;;;57.00;32.30;;;;;;;2.86;92.62;96932.92;105546;1316;22580;-84
2021/11/14 00:36:21;;;;;;;57.90;31.90;;;;;;;2.87;92.59;96936.73;105470;1312;25448;-85
2021/11/14 00:38:53;;;;;;;63.90;35.20;;;;;;;2.87;92.42;96941.69;105571;1309;25226;-84
2021/11/14 00:41:25;;;;;;;63.00;34.30;;;;;;;2.85;92.41;96943.94;105615;1309;25395;-84
2021/11/14 00:43:55;;;;;;;73.40;37.90;;;;;;;2.79;92.45;96944.77;105550;1314;23715;-84
2021/11/14 00:46:27;;;;;;;56.80;33.00;;;;;;;2.74;92.27;96942.49;105513;1314;23329;-84
2021/11/14 00:48:58;;;;;;;71.20;37.00;;;;;;;2.72;92.42;96941.39;105581;1313;22670;-83
2021/11/14 00:51:29;;;;;;;62.50;37.80;;;;;;;2.69;92.41;96942.73;105579;1316;22570;-84
2021/11/14 00:54:02;;;;;;;60.60;35.20;;;;;;;2.69;92.55;96943.82;105600;1315;22559;-84
2021/11/14 00:56:33;;;;;;;64.60;35.70;;;;;;;2.67;92.59;96945.19;105560;1315;22743;-83
2021/11/14 00:59:04;;;;;;;59.00;35.20;;;;;;;2.67;92.51;96939.64;105582;1316;23040;-84
2021/11/14 01:01:35;;;;;;;60.20;35.70;;;;;;;2.66;92.57;96940.12;105559;1315;22557;-83
2021/11/14 01:04:06;;;;;;;62.30;34.50;;;;;;;2.66;92.56;96937.66;105573;1315;22637;-83
2021/11/14 01:06:37;;;;;;;58.60;33.20;;;;;;;2.68;92.54;96944.46;105606;1316;22568;-83
2021/11/14 01:09:07;;;;;;;66.60;35.70;;;;;;;2.66;92.49;96945.16;105608;1309;24393;-84
2021/11/14 01:11:39;;;;;;;61.50;36.80;;;;;;;2.64;92.59;96942.52;105563;1315;22570;-84
2021/11/14 01:14:09;;;;;;;61.20;34.30;;;;;;;2.62;92.42;96943.36;105550;1314;22579;-83
2021/11/14 01:16:40;;;;;;;60.30;34.30;;;;;;;2.54;92.61;96938.33;105497;1309;25429;-83
2021/11/14 01:19:11;;;;;;;61.00;32.80;;;;;;;2.43;92.63;96936.58;105562;1309;22637;-84
2021/11/14 01:21:46;;;;;;;54.30;30.50;;;;;;;2.36;92.70;96936.34;105555;1314;22713;-83
2021/11/14 01:24:19;;;;;;;56.90;31.70;;;;;;;2.35;92.70;96938.26;105611;1309;23283;-84
2021/11/14 01:26:50;;;;;;;57.60;31.60;;;;;;;2.34;92.81;96942.92;105586;1315;24316;-84
2021/11/14 01:29:20;;;;;;;55.60;30.90;;;;;;;2.32;92.64;96943.60;105559;1313;22573;-83
2021/11/14 01:31:49;;;;;;;;;;;;;;;2.28;92.92;96941.88;105621;1316;22579;-84
2021/11/14 01:34:20;;;;;;;50.00;27.80;;;;;;;2.30;92.78;96944.13;105582;1314;22639;-83
2021/11/14 01:36:51;;;;;;;57.20;28.90;;;;;;;2.29;93.03;96940.42;105585;1315;22572;-83
2021/11/14 01:39:22;;;;;;;53.90;30.00;;;;;;;2.30;92.96;96940.98;105472;1312;22573;-84
2021/11/14 01:41:54;;;;;;;52.60;27.80;;;;;;;2.32;93.06;96938.77;105625;1315;22637;-83
2021/11/14 01:44:25;;;;;;;55.60;30.60;;;;;;;2.32;93.10;96938.05;105581;1316;22589;-83
2021/11/14 01:46:55;;;;;;;53.30;29.10;;;;;;;2.33;93.08;96934.74;105571;1314;25313;-83
2021/11/14 01:49:26;;;;;;;54.60;29.90;;;;;;;2.33;93.02;96934.73;105624;1309;22601;-83
2021/11/14 01:51:57;;;;;;;54.20;29.70;;;;;;;2.33;92.99;96937.35;105533;1315;22611;-84
2021/11/14 01:54:29;;;;;;;52.30;31.50;;;;;;;2.28;92.87;96936.90;105578;1315;22567;-84
2021/11/14 01:56:59;;;;;;;59.80;32.90;;;;;;;2.19;92.98;96936.58;105598;1314;22590;-83
2021/11/14 01:59:34;;;;;;;57.60;31.80;;;;;;;2.15;93.05;96934.78;105568;1314;22609;-83
2021/11/14 02:02:06;;;;;;;57.50;30.50;;;;;;;2.18;93.16;96934.50;105569;1313;22564;-83
2021/11/14 02:04:36;;;;;;;54.30;31.30;;;;;;;2.17;93.24;96932.02;105590;1316;22598;-84
2021/11/14 02:07:08;;;;;;;61.70;34.80;;;;;;;2.18;93.27;96933.20;105583;1309;22579;-83
2021/11/14 02:09:39;;;;;;;61.70;34.00;;;;;;;2.19;93.29;96938.30;105590;1314;22545;-83
2021/11/14 02:12:10;;;;;;;56.80;31.20;;;;;;;2.17;93.25;96933.48;105599;1309;22564;-84
2021/11/14 02:14:41;;;;;;;49.40;28.10;;;;;;;2.18;93.23;96940.61;105570;1315;22589;-83
2021/11/14 02:17:11;;;;;;;58.30;30.90;;;;;;;2.20;93.35;96944.77;105546;1316;22586;-83
2021/11/14 02:19:42;;;;;;;48.70;26.60;;;;;;;2.21;93.33;96943.59;105563;1315;22583;-83
2021/11/14 02:22:13;;;;;;;50.80;27.60;;;;;;;2.21;93.17;96939.77;105474;1315;22644;-83
2021/11/14 02:24:43;;;;;;;48.90;27.20;;;;;;;2.17;93.10;96938.56;105598;1313;22593;-83
2021/11/14 02:27:15;;;;;;;54.00;29.30;;;;;;;2.18;93.17;96942.98;105608;1315;22576;-83
2021/11/14 02:29:46;;;;;;;53.00;28.60;;;;;;;2.13;93.08;96946.55;105458;1315;22565;-83
2021/11/14 02:32:16;;;;;;;52.10;29.20;;;;;;;2.10;93.36;96949.41;105472;1316;22597;-83
2021/11/14 02:34:47;;;;;;;55.70;28.90;;;;;;;2.07;93.31;96950.92;105532;1315;22634;-83
2021/11/14 02:37:18;;;;;;;53.90;30.10;;;;;;;2.06;93.46;96954.13;105485;1316;22595;-84
2021/11/14 02:39:49;;;;;;;49.50;27.90;;;;;;;2.05;93.50;96956.70;105510;1313;22774;-83
2021/11/14 02:42:19;;;;;;;56.60;30.40;;;;;;;2.04;93.59;96956.27;105601;1309;22549;-83
2021/11/14 02:44:50;;;;;;;51.80;30.30;;;;;;;2.05;93.65;96960.41;105609;1309;22577;-84
2021/11/14 02:47:21;;;;;;;59.50;30.50;;;;;;;2.04;93.70;96962.70;105562;1315;22630;-84
2021/11/14 02:49:53;;;;;;;53.20;29.50;;;;;;;2.04;93.90;96957.52;105589;1315;22592;-84
2021/11/14 02:52:23;;;;;;;51.50;29.30;;;;;;;2.06;93.84;96960.52;105560;1316;22573;-83
2021/11/14 02:54:54;;;;;;;59.80;32.50;;;;;;;2.07;94.10;96960.07;105614;1315;24370;-83
2021/11/14 02:57:25;;;;;;;60.30;33.20;;;;;;;2.07;93.96;96960.86;105603;1314;22598;-83
2021/11/14 02:59:56;;;;;;;61.40;33.50;;;;;;;2.10;93.96;96956.86;105570;1314;22589;-83
2021/11/14 03:02:27;;;;;;;53.80;31.80;;;;;;;2.14;94.06;96959.25;105550;1316;22587;-84
2021/11/14 03:04:57;;;;;;;52.80;30.00;;;;;;;2.17;93.95;96956.04;105580;1316;22582;-83
2021/11/14 03:07:30;;;;;;;51.40;28.30;;;;;;;2.20;93.94;96958.45;105581;1313;22512;-83
2021/11/14 03:10:01;;;;;;;47.80;26.10;;;;;;;2.20;93.75;96957.73;105465;1316;22611;-83
2021/11/14 03:12:32;;;;;;;51.50;28.30;;;;;;;2.18;93.48;96959.40;105597;1313;22567;-83
2021/11/14 03:15:04;;;;;;;45.40;25.80;;;;;;;2.13;93.54;96953.46;105584;1313;22607;-83
2021/11/14 03:17:35;;;;;;;44.30;25.20;;;;;;;2.11;93.65;96960.23;105552;1316;22567;-83
2021/11/14 03:20:07;;;;;;;48.20;26.80;;;;;;;2.12;93.63;96959.55;105592;1316;23916;-83
2021/11/14 03:22:40;;;;;;;41.80;23.60;;;;;;;2.07;93.43;96963.05;105569;1315;22583;-83
2021/11/14 03:25:11;;;;;;;45.30;24.80;;;;;;;2.02;93.55;96957.87;105461;1316;22608;-84
2021/11/14 03:27:42;;;;;;;46.50;26.00;;;;;;;2.00;93.62;96959.25;105588;1315;22676;-83
2021/11/14 03:30:16;;;;;;;45.70;25.20;;;;;;;2.01;93.53;96958.44;105613;1316;23356;-83
2021/11/14 03:32:48;;;;;;;41.90;24.20;;;;;;;1.99;93.43;96960.10;105554;1315;22583;-84
2021/11/14 03:35:20;;;;;;;45.30;24.40;;;;;;;2.01;93.66;96959.73;105536;1315;22627;-84
2021/11/14 03:37:52;;;;;;;40.40;23.90;;;;;;;2.00;93.55;96961.18;105511;1314;22596;-83
2021/11/14 03:40:23;;;;;;;41.80;23.50;;;;;;;1.98;93.41;96961.13;105493;1313;23887;-84
2021/11/14 03:42:54;;;;;;;43.00;23.90;;;;;;;1.93;93.35;96963.56;105527;1315;22604;-84
2021/11/14 03:45:25;;;;;;;44.10;24.70;;;;;;;1.90;93.48;96965.09;105460;1316;22597;-84
2021/11/14 03:47:56;;;;;;;50.40;26.70;;;;;;;1.86;93.51;96970.68;105555;1315;22595;-83
2021/11/14 03:50:28;;;;;;;44.10;24.30;;;;;;;1.84;93.58;96973.08;105517;1315;24320;-84
2021/11/14 03:52:59;;;;;;;52.90;26.90;;;;;;;1.84;93.53;96968.97;105570;1316;22587;-83
2021/11/14 03:55:30;;;;;;;45.50;26.00;;;;;;;1.83;93.63;96966.30;105527;1315;22651;-84
2021/11/14 03:58:01;;;;;;;45.30;25.70;;;;;;;1.87;93.86;96959.86;105502;1315;22577;-83
2021/11/14 04:00:39;;;;;;;42.80;24.70;;;;;;;1.91;93.83;96959.37;105548;1309;22560;-83
2021/11/14 04:03:10;;;;;;;48.50;27.00;;;;;;;1.98;93.92;96963.05;105552;1314;22579;-84
2021/11/14 04:05:44;;;;;;;49.00;26.70;;;;;;;2.06;93.92;96963.58;105512;1315;24217;-84
2021/11/14 04:08:17;;;;;;;53.20;26.30;;;;;;;2.09;93.78;96965.20;105564;1316;23388;-84
2021/11/14 04:10:49;;;;;;;44.40;25.10;;;;;;;2.10;93.72;96970.61;105560;1315;22651;-83
2021/11/14 04:13:21;;;;;;;46.20;24.90;;;;;;;2.10;93.73;96968.31;105586;1315;22608;-84
2021/11/14 04:15:52;;;;;;;46.10;24.80;;;;;;;2.10;93.60;96974.31;105446;1315;22566;-84
2021/11/14 04:18:23;;;;;;;44.50;25.80;;;;;;;2.06;93.50;96975.48;105506;1316;22635;-84
2021/11/14 04:20:53;;;;;;;47.80;25.70;;;;;;;2.04;93.66;96974.77;105578;1316;25459;-84
2021/11/14 04:23:25;;;;;;;51.10;27.90;;;;;;;2.03;93.52;96972.70;105531;1315;22636;-84
2021/11/14 04:25:55;;;;;;;44.10;24.80;;;;;;;2.01;93.54;96975.70;105556;1315;22629;-84
2021/11/14 04:28:26;;;;;;;46.10;26.50;;;;;;;2.01;93.68;96978.56;105585;1316;24303;-84
2021/11/14 04:30:57;;;;;;;48.50;26.80;;;;;;;2.00;93.63;96986.77;105537;1315;23041;-83
2021/11/14 04:33:28;;;;;;;52.00;28.20;;;;;;;2.00;93.63;96983.52;105448;1316;24306;-83
2021/11/14 04:36:00;;;;;;;52.80;27.30;;;;;;;2.05;93.89;96987.33;105504;1316;22641;-83
2021/11/14 04:38:30;;;;;;;53.00;26.70;;;;;;;2.13;93.94;96989.27;105551;1315;22703;-83
2021/11/14 04:41:01;;;;;;;50.40;28.60;;;;;;;2.18;93.78;96988.38;105606;1309;22566;-84
2021/11/14 04:43:32;;;;;;;51.50;27.30;;;;;;;2.23;93.83;96997.38;105517;1314;22595;-84
2021/11/14 04:46:03;;;;;;;49.90;26.20;;;;;;;2.28;93.74;96998.48;105545;1315;24711;-83
2021/11/14 04:48:33;;;;;;;42.40;24.60;;;;;;;2.29;93.78;97002.61;105535;1316;23040;-84
2021/11/14 04:51:05;;;;;;;48.40;26.80;;;;;;;2.23;93.55;97002.45;105434;1312;22635;-84
2021/11/14 04:53:35;;;;;;;39.20;23.70;;;;;;;2.15;93.35;97002.38;105550;1315;24254;-84
2021/11/14 04:56:06;;;;;;;43.70;26.00;;;;;;;2.10;93.49;97005.29;105526;1314;22596;-83
2021/11/14 04:58:37;;;;;;;46.90;24.80;;;;;;;2.08;93.50;97008.36;105478;1313;22570;-83
2021/11/14 05:01:08;;;;;;;41.80;24.60;;;;;;;2.13;93.49;97008.30;105539;1314;22601;-83
2021/11/14 05:03:39;;;;;;;42.70;26.00;;;;;;;2.16;93.59;97004.81;105524;1309;22587;-84
2021/11/14 05:06:10;;;;;;;44.20;24.70;;;;;;;2.16;93.49;97004.34;105505;1314;22601;-83
2021/11/14 05:08:42;;;;;;;41.60;24.00;;;;;;;2.18;93.53;97006.13;105551;1314;24228;-83
2021/11/14 05:11:12;;;;;;;46.50;26.30;;;;;;;2.16;93.54;97009.67;105487;1313;22577;-83
2021/11/14 05:13:43;;;;;;;43.30;24.00;;;;;;;2.14;93.33;97008.45;105537;1309;22571;-84
2021/11/14 05:16:14;;;;;;;41.40;24.60;;;;;;;2.04;93.35;97013.44;105429;1310;22583;-84
2021/11/14 05:18:44;;;;;;;43.20;24.10;;;;;;;1.97;93.57;97017.20;105582;1309;23206;-84
2021/11/14 05:21:15;;;;;;;49.80;27.10;;;;;;;1.96;93.59;97018.60;105558;1313;22688;-84
2021/11/14 05:23:46;;;;;;;49.30;27.80;;;;;;;1.93;93.59;97025.78;105545;1313;22576;-84
2021/11/14 05:26:17;;;;;;;49.90;27.80;;;;;;;1.88;93.64;97034.32;105586;1314;25227;-83
2021/11/14 05:28:47;;;;;;;46.70;26.00;;;;;;;1.86;93.99;97039.00;105508;1316;22618;-84
2021/11/14 05:31:18;;;;;;;47.60;25.80;;;;;;;1.83;93.88;97038.45;105560;1315;22606;-84
2021/11/14 05:33:49;;;;;;;47.70;27.20;;;;;;;1.82;94.03;97041.80;105458;1315;22561;-83
2021/11/14 05:36:19;;;;;;;47.10;26.70;;;;;;;1.84;94.07;97046.27;105476;1310;27341;-84
2021/11/14 05:38:51;;;;;;;46.10;25.60;;;;;;;1.89;94.17;97049.80;105410;1312;22627;-84
2021/11/14 05:41:21;;;;;;;46.00;27.10;;;;;;;1.89;94.27;97046.48;105546;1309;22736;-84
2021/11/14 05:43:52;;;;;;;44.50;26.10;;;;;;;1.88;94.08;97049.08;105420;1314;22650;-84
2021/11/14 05:46:23;;;;;;;47.50;25.50;;;;;;;1.85;94.19;97051.56;105581;1315;23328;-84
2021/11/14 05:48:54;;;;;;;54.80;27.10;;;;;;;1.84;94.06;97058.33;105567;1313;22570;-84
2021/11/14 05:51:24;;;;;;;48.80;25.70;;;;;;;1.82;94.11;97063.52;105468;1309;24303;-83
2021/11/14 05:53:55;;;;;;;46.70;25.80;;;;;;;1.77;93.90;97060.93;105541;1309;22633;-84
2021/11/14 05:56:26;;;;;;;41.70;24.50;;;;;;;1.76;94.24;97064.04;105548;1309;22695;-84
2021/11/14 05:59:03;;;;;;;40.00;22.70;;;;;;;1.74;94.11;97068.89;105467;1309;22644;-84
2021/11/14 06:01:39;;;;;;;40.80;22.50;;;;;;;1.72;94.05;97076.61;105539;1310;24215;-83
2021/11/14 06:04:17;;;;;;;40.40;22.90;;;;;;;1.72;94.02;97080.04;105566;1314;22549;-84
2021/11/14 06:06:48;;;;;;;42.20;22.90;;;;;;;1.71;94.09;97080.13;105505;1309;24397;-84
2021/11/14 06:09:19;;;;;;;43.70;22.80;;;;;;;1.70;93.96;97085.12;105513;1309;22589;-83
2021/11/14 06:11:50;;;;;;;38.70;22.40;;;;;;;1.70;94.09;97083.19;105588;1309;26406;-83
2021/11/14 06:14:21;;;;;;;38.10;21.00;;;;;;;1.69;93.94;97085.79;105557;1309;22582;-83
2021/11/14 06:16:52;;;;;;;42.00;23.90;;;;;;;1.66;94.17;97093.60;105539;1313;22586;-83
2021/11/14 06:19:23;;;;;;;39.50;20.90;;;;;;;1.61;93.95;97098.39;105548;1309;22871;-83
2021/11/14 06:21:54;;;;;;;40.50;22.40;;;;;;;1.55;94.14;97095.67;105541;1315;24257;-84
2021/11/14 06:24:24;;;;;;;39.70;22.10;;;;;;;1.53;94.06;97097.05;105559;1316;22662;-83
2021/11/14 06:26:55;;;;;;;41.50;23.80;;;;;;;1.59;94.31;97098.80;105500;1309;23065;-83
2021/11/14 06:29:26;;;;;;;39.50;23.20;;;;;;;1.66;94.53;97104.02;105539;1309;22590;-84
2021/11/14 06:31:56;;;;;;;39.90;24.10;;;;;;;1.69;94.55;97110.80;105548;1316;22567;-84
2021/11/14 06:34:27;;;;;;;45.60;24.90;;;;;;;1.73;94.53;97115.94;105447;1309;23081;-84
2021/11/14 06:36:58;;;;;;;45.90;25.30;;;;;;;1.76;94.42;97120.58;105561;1316;22614;-83
2021/11/14 06:39:29;;;;;;;41.30;22.00;;;;;;;1.84;94.61;97123.20;105553;1314;22689;-83
2021/11/14 06:41:59;;;;;;;40.90;22.20;;;;;;;1.88;94.65;97125.86;105592;1313;22609;-83
2021/11/14 06:44:30;;;;;;;36.90;20.40;;;;;;;1.92;94.60;97126.55;105564;1309;22583;-84
2021/11/14 06:47:01;;;;;;;41.30;22.60;;;;;;;1.95;94.48;97127.34;105452;1309;207133;-83
2021/11/14 06:49:32;;;;;;;35.90;20.50;;;;;;;1.97;94.52;97132.13;105462;1309;25408;-83
2021/11/14 06:52:03;;;;;;;37.10;19.50;;;;;;;2.00;94.37;97130.83;105542;1309;22577;-83
2021/11/14 06:54:34;;;;;;;40.70;22.70;;;;;;;2.07;94.47;97135.11;105574;1313;25501;-83
2021/11/14 06:57:06;;;;;;;39.90;22.80;;;;;;;2.13;94.27;97134.16;105453;1309;24267;-83
2021/11/14 06:59:38;;;;;;;37.20;21.50;;;;;;;2.22;94.42;97132.36;105592;1309;22586;-84
2021/11/14 07:02:11;;;;;;;46.70;23.80;;;;;;;2.31;94.36;97135.80;105516;1315;25223;-83
2021/11/14 07:04:42;;;;;;;44.80;23.30;;;;;;;2.39;94.41;97138.88;105572;1309;25354;-83
2021/11/14 07:07:13;;;;;;;39.00;22.60;;;;;;;2.42;94.33;97139.23;105536;1316;23066;-83
2021/11/14 07:09:44;;;;;;;43.30;23.60;;;;;;;2.46;94.14;97142.09;105387;1311;22653;-83
2021/11/14 07:12:15;;;;;;;40.50;23.50;;;;;;;2.47;94.06;97141.19;105570;1315;22903;-83
2021/11/14 07:14:47;;;;;;;39.50;23.00;;;;;;;2.54;94.26;97149.55;105515;1309;22688;-83
2021/11/14 07:17:18;;;;;;;39.70;23.80;;;;;;;2.62;94.18;97145.94;105455;1312;22567;-83
2021/11/14 07:19:49;;;;;;;39.10;22.00;;;;;;;2.67;94.12;97146.30;105570;1309;22593;-83
2021/11/14 07:22:20;;;;;;;39.50;22.50;;;;;;;2.73;94.17;97148.95;105542;1314;24388;-83
2021/11/14 07:24:51;;;;;;;36.30;21.50;;;;;;;2.76;94.02;97148.52;105547;1314;24144;-83
2021/11/14 07:27:21;;;;;;;37.10;20.60;;;;;;;2.80;93.88;97150.58;105590;1309;22572;-83
2021/11/14 07:29:52;;;;;;;37.40;22.20;;;;;;;2.82;93.70;97149.73;105560;1315;23091;-83
2021/11/14 07:32:23;;;;;;;38.80;22.40;;;;;;;2.85;93.62;97148.34;105564;1309;22654;-83
2021/11/14 07:34:54;;;;;;;39.00;22.70;;;;;;;2.89;93.42;97151.13;105431;1312;22583;-83
2021/11/14 07:37:25;;;;;;;40.50;23.70;;;;;;;2.94;93.33;97152.79;105488;1309;22603;-83
2021/11/14 07:39:56;;;;;;;41.70;23.20;;;;;;;2.94;93.28;97153.90;105395;1313;22724;-84
2021/11/14 07:42:28;;;;;;;35.70;22.20;;;;;;;2.95;93.11;97156.77;105497;1309;22567;-84
2021/11/14 07:44:59;;;;;;;42.80;24.50;;;;;;;2.96;93.01;97155.67;105532;1309;22609;-83
2021/11/14 07:47:31;;;;;;;43.70;23.30;;;;;;;3.00;93.12;97154.02;105519;1309;22603;-83
2021/11/14 07:50:02;;;;;;;40.40;23.70;;;;;;;3.11;93.20;97152.66;105486;1313;22722;-84
2021/11/14 07:52:33;;;;;;;42.70;24.20;;;;;;;3.23;93.35;97151.49;105533;1314;24257;-83
2021/11/14 07:55:08;;;;;;;39.30;23.10;;;;;;;3.30;93.11;97149.89;105541;1310;22669;-84
2021/11/14 07:57:43;;;;;;;42.70;24.40;;;;;;;3.35;92.90;97154.78;105583;1313;24258;-83
2021/11/14 08:00:17;;;;;;;35.60;23.00;;;;;;;3.45;92.85;97156.53;105488;1309;22589;-83
2021/11/14 08:02:50;;;;;;;37.30;24.00;;;;;;;3.55;92.69;97161.38;105553;1309;22988;-84
2021/11/14 08:05:22;;;;;;;38.30;23.30;;;;;;;3.61;92.59;97162.32;105603;1313;22597;-84
2021/11/14 08:07:53;;;;;;;40.60;23.40;;;;;;;3.63;92.37;97162.00;105433;1313;25451;-84
2021/11/14 08:10:24;;;;;;;39.00;22.70;;;;;;;3.68;92.39;97163.21;105476;1309;22581;-84
2021/11/14 08:12:55;;;;;;;38.80;22.50;;;;;;;3.72;92.26;97165.00;105532;1309;22711;-84
2021/11/14 08:15:27;;;;;;;36.80;22.90;;;;;;;3.78;92.30;97167.27;105172;1309;36274;-84
2021/11/14 08:17:59;;;;;;;38.60;24.10;;;;;;;3.85;92.10;97165.21;105228;1315;27938;-83
2021/11/14 08:20:33;;;;;;;37.70;22.90;;;;;;;3.90;92.05;97169.58;105310;1309;26136;-83
2021/11/14 08:23:05;;;;;;;36.40;21.30;;;;;;;3.96;91.90;97170.27;105278;1309;25887;-84
2021/11/14 08:25:36;;;;;;;39.30;23.50;;;;;;;4.01;91.87;97175.37;105337;1309;25922;-84
2021/11/14 08:28:07;;;;;;;42.00;24.70;;;;;;;4.04;91.78;97177.74;105189;1312;25868;-84
2021/11/14 08:30:39;;;;;;;38.80;22.80;;;;;;;4.10;91.73;97178.52;105196;1315;36411;-83
2021/11/14 08:33:11;;;;;;;41.10;23.10;;;;;;;4.20;91.58;97175.58;105417;1310;24651;-82
2021/11/14 08:35:42;;;;;;;37.20;22.90;;;;;;;4.22;91.40;97177.02;105163;1309;26665;-82
2021/11/14 08:38:12;;;;;;;37.00;22.90;;;;;;;4.21;91.17;97176.86;105281;1316;27223;-83
2021/11/14 08:40:44;;;;;;;38.00;23.00;;;;;;;4.23;91.21;97178.35;105123;1316;27453;-83
2021/11/14 08:43:15;;;;;;;36.90;22.20;;;;;;;4.27;91.18;97178.77;105268;1313;25772;-84
2021/11/14 08:45:47;;;;;;;33.60;19.60;;;;;;;4.28;90.94;97177.66;105204;1309;29162;-83
2021/11/14 08:48:18;;;;;;;38.60;22.10;;;;;;;4.32;90.89;97175.65;105256;1309;36092;-83
2021/11/14 08:50:50;;;;;;;36.30;22.30;;;;;;;4.35;90.82;97177.88;105234;1316;26829;-84
2021/11/14 08:53:22;;;;;;;36.40;21.70;;;;;;;4.43;90.81;97178.04;105167;1309;26464;-84
2021/11/14 08:55:54;;;;;;;35.30;20.80;;;;;;;4.51;90.89;97180.03;105237;1309;29460;-84
2021/11/14 08:58:26;;;;;;;39.00;22.90;;;;;;;4.53;90.46;97186.16;105282;1309;26483;-84
2021/11/14 09:00:57;;;;;;;34.80;20.40;;;;;;;4.58;90.62;97189.21;105236;1310;24907;-84
2021/11/14 09:03:28;;;;;;;36.90;20.80;;;;;;;4.71;90.81;97191.27;105213;1304;29411;-84
2021/11/14 09:06:00;;;;;;;33.80;20.50;;;;;;;4.79;90.72;97191.46;105282;1315;25246;-84
2021/11/14 09:08:31;;;;;;;35.30;21.60;;;;;;;4.86;90.31;97195.03;105270;1314;25447;-84
2021/11/14 09:11:03;;;;;;;34.70;21.50;;;;;;;4.90;90.20;97195.16;105116;1315;27216;-84
2021/11/14 09:13:34;;;;;;;38.00;22.40;;;;;;;4.95;90.15;97191.27;105172;1316;26097;-84
2021/11/14 09:16:05;;;;;;;35.90;21.50;;;;;;;4.97;89.96;97191.14;105208;1313;26038;-84
2021/11/14 09:18:38;;;;;;;32.50;20.20;;;;;;;4.93;89.75;97186.64;105264;1315;29677;-84
2021/11/14 09:21:10;;;;;;;35.10;19.80;;;;;;;4.93;89.35;97191.93;105235;1315;27246;-84
2021/11/14 09:23:41;;;;;;;37.40;20.00;;;;;;;4.93;89.36;97188.42;105263;1309;25274;-84
2021/11/14 09:26:12;;;;;;;32.00;19.10;;;;;;;4.91;89.18;97189.00;105180;1312;25638;-83
2021/11/14 09:28:43;;;;;;;35.30;20.40;;;;;;;4.91;89.20;97188.89;105166;1312;26812;-83
2021/11/14 09:31:17;;;;;;;34.20;20.50;;;;;;;4.85;88.74;97193.68;105192;1312;27398;-83
2021/11/14 09:33:53;;;;;;;39.70;21.60;;;;;;;4.75;88.60;97191.52;105283;1316;26552;-83
2021/11/14 09:36:30;;;;;;;40.90;24.20;;;;;;;4.75;89.13;97191.89;105177;1316;24993;-84
2021/11/14 09:39:05;;;;;;;45.30;25.80;;;;;;;4.83;89.44;97194.98;105304;1313;28259;-84
2021/11/14 09:41:42;;;;;;;43.60;25.20;;;;;;;4.89;89.51;97198.09;105259;1314;30352;-84
2021/11/14 09:44:18;;;;;;;46.20;28.40;;;;;;;4.93;89.45;97195.00;105141;1313;27294;-84
2021/11/14 09:46:54;;;;;;;38.60;24.00;;;;;;;5.01;89.62;97192.91;105168;1312;26690;-84
2021/11/14 09:49:27;;;;;;;44.70;25.30;;;;;;;5.08;89.42;97194.11;105113;1311;25647;-84
2021/11/14 09:52:01;;;;;;;49.20;28.30;;;;;;;5.13;89.53;97193.98;105276;1309;25860;-84
2021/11/14 09:54:33;;;;;;;46.10;26.90;;;;;;;5.15;89.20;97200.12;105258;1309;28314;-84
2021/11/14 09:57:08;;;;;;;44.80;26.40;;;;;;;5.10;89.02;97202.52;105291;1313;25380;-84
2021/11/14 09:59:39;;;;;;;46.80;26.50;;;;;;;5.12;89.17;97199.83;105317;1309;28372;-84
2021/11/14 10:02:11;;;;;;;45.80;25.70;;;;;;;5.14;89.27;97204.23;105278;1309;26455;-83
2021/11/14 10:04:42;;;;;;;43.70;26.40;;;;;;;5.16;89.11;97205.12;105292;1309;25795;-82
2021/11/14 10:07:16;;;;;;;43.50;25.40;;;;;;;5.17;88.97;97200.94;105247;1309;28345;-84
2021/11/14 10:09:50;;;;;;;45.50;26.50;;;;;;;5.06;88.51;97202.05;105236;1309;26152;-84
2021/11/14 10:12:24;;;;;;;45.80;27.20;;;;;;;5.02;88.73;97197.76;105265;1313;26356;-83
2021/11/14 10:15:10;;;;;;;45.60;27.60;;;;;;;5.00;88.54;97202.29;105305;1309;29784;-83
2021/11/14 10:17:47;;;;;;;47.30;27.40;;;;;;;4.81;88.43;97207.43;105354;1314;25218;-83
2021/11/14 10:20:22;;;;;;;49.40;28.20;;;;;;;4.74;88.71;97205.31;105285;1315;38613;-83
2021/11/14 10:22:56;;;;;;;46.90;28.90;;;;;;;4.79;89.06;97206.27;105359;1315;25894;-83
2021/11/14 10:25:28;;;;;;;43.80;26.60;;;;;;;4.80;89.17;97207.30;105276;1309;26444;-83
2021/11/14 10:28:04;;;;;;;48.30;28.50;;;;;;;4.82;89.22;97211.65;105106;1316;26631;-83
2021/11/14 10:30:39;;;;;;;52.70;29.40;;;;;;;4.86;89.09;97209.84;105206;1316;29110;-83
2021/11/14 10:33:13;;;;;;;51.60;29.20;;;;;;;4.86;89.19;97211.96;105268;1309;37302;-84
2021/11/14 10:35:47;;;;;;;50.40;29.90;;;;;;;4.87;89.07;97214.02;105198;1309;25586;-83
2021/11/14 10:38:21;;;;;;;50.70;28.60;;;;;;;4.90;89.18;97216.02;105254;1309;26145;-84
2021/11/14 10:40:56;;;;;;;51.50;29.60;;;;;;;4.92;89.09;97219.87;105272;1315;27429;-83
2021/11/14 10:43:29;;;;;;;53.50;29.80;;;;;;;4.94;89.36;97216.36;105400;1313;26972;-83
2021/11/14 10:46:02;;;;;;;52.10;28.70;;;;;;;4.97;89.25;97219.56;105320;1309;26328;-83
2021/11/14 10:48:40;;;;;;;51.00;31.60;;;;;;;4.99;89.14;97227.13;105249;1316;24482;-82
2021/11/14 10:51:13;;;;;;;51.90;30.80;;;;;;;5.01;89.24;97222.35;105385;1309;28346;-83
2021/11/14 10:53:48;;;;;;;48.80;28.40;;;;;;;5.03;89.13;97224.29;105098;1314;27138;-83
2021/11/14 10:56:20;;;;;;;54.30;30.00;;;;;;;5.05;89.12;97228.42;105294;1313;25846;-83
2021/11/14 10:58:53;;;;;;;53.20;28.40;;;;;;;5.04;88.93;97231.80;105233;1312;28484;-83
2021/11/14 11:01:25;;;;;;;51.50;29.30;;;;;;;5.00;88.86;97231.62;105365;1309;25337;-83
2021/11/14 11:03:56;;;;;;;54.30;30.40;;;;;;;4.96;88.84;97232.80;105280;1309;24733;-81
2021/11/14 11:06:29;;;;;;;59.60;32.80;;;;;;;4.93;88.87;97231.56;105152;1316;24952;-82
2021/11/14 11:09:03;;;;;;;55.30;30.30;;;;;;;4.86;88.92;97232.86;105260;1309;26991;-83
2021/11/14 11:11:36;;;;;;;58.20;31.70;;;;;;;4.74;88.63;97236.92;105282;1309;25316;-83
2021/11/14 11:14:07;;;;;;;58.40;33.50;;;;;;;4.61;88.77;97233.44;105283;1309;25033;-83
2021/11/14 11:16:39;;;;;;;62.70;34.30;;;;;;;4.58;89.04;97234.79;105320;1314;26194;-83
2021/11/14 11:19:13;;;;;;;61.20;33.70;;;;;;;4.55;89.36;97233.47;105250;1313;25146;-83
2021/11/14 11:21:48;;;;;;;58.70;32.20;;;;;;;4.56;89.53;97230.08;105237;1313;27106;-83
2021/11/14 11:24:22;;;;;;;69.10;35.90;;;;;;;4.52;89.42;97231.23;105229;1314;26497;-83
2021/11/14 11:27:03;;;;;;;64.00;34.30;;;;;;;4.48;89.73;97233.81;105382;1309;28669;-83
2021/11/14 11:29:37;;;;;;;63.80;34.90;;;;;;;4.44;89.71;97236.70;105257;1316;25003;-83
2021/11/14 11:32:10;;;;;;;67.20;36.60;;;;;;;4.38;89.75;97240.33;105148;1314;28814;-83
2021/11/14 11:34:42;;;;;;;61.70;35.60;;;;;;;4.36;89.99;97237.19;105177;1309;26154;-82
2021/11/14 11:37:14;;;;;;;65.40;37.50;;;;;;;4.34;90.00;97238.02;105245;1309;25101;-85